Safe, Missouri
Current Conditions -  °F | °C
As of 1:53 AM on Thursday 27 Nov 2014 (Local Time) from KVIH Reporting Station
Haze Haze  
Wind Chill: 21°   Ceiling: 400
Heat Index: 31°   Visibility: 4mi
Dew Point: 29°   Wind: 14mph
Humidity: 92%   Direction: 320°NW
Pressure: 30.3"   Gusts: NA
Location:  37.9936°N, 91.5964°W
Report Text: KVIH 270753Z AUTO 32012KT 4SM BR OVC004 M01/M02 A3030 RMK AO2 FZRAB05E24 SLP270 P0000 I1002 T10061017
Loading
Personal Weather Stations






























Interactive Weather Map New forecast layout! Learn more

10-Day Weather Forecast

Advertisements
Track Severe Weather on mobile